Data for 08/15/2015

Time Sea-Level Adjusted Pressure Absolute Pressure Temperature Relative Humidity Dew Point   
(mb) (inHg) (mb) (inHg) (C) (F) (%) (C) (F)
00:05 1018 30.06 847 25.01 25.3 77.5 28 5.8 42.4
00:10 1018 30.06 847 25.01 25.3 77.5 28 5.6 42
00:15 1018 30.06 847 25.01 25.3 77.5 28 5.9 42.6
00:20 1018 30.06 847 25.01 25.4 77.7 27 5.3 41.5
00:25 1018 30.06 847 25.01 25.7 78.3 27 5.7 42.2
00:30 1018 30.06 847 25.01 25.4 77.7 28 6 42.7
00:35 1018 30.06 847 25.01 25.1 77.2 29 6.1 43
00:40 1018 30.06 847 25.01 24.9 76.8 29 5.9 42.6
00:45 1018 30.06 847 25.01 24.9 76.8 29 6.1 43
00:50 1018 30.06 847 25.01 24.6 76.3 30 6.1 43
00:55 1018 30.06 847 25.01 24.7 76.5 29 5.9 42.7
01:00 1018 30.06 847 25.01 25.1 77.1 28 5.8 42.4
01:05 1018 30.06 847 25.01 25.3 77.5 28 5.9 42.7
01:10 1018 30.06 847 25.01 25.1 77.1 29 6.2 43.2
01:15 1018 30.06 847 25.01 24.9 76.8 30 6.4 43.5
01:20 1018 30.06 847 25.01 24.6 76.2 31 6.5 43.6
01:25 1018 30.06 847 25.01 24.6 76.2 30 6.2 43.2
01:30 1018 30.06 847 25.01 24.7 76.5 30 6.2 43.2
01:35 1018 30.06 847 25.01 25 76.9 29 6.1 43
01:40 1018 30.06 847 25.01 25 76.9 30 6.4 43.5
01:45 1018 30.06 847 25.01 24.8 76.7 30 6.4 43.6
01:50 1018 30.06 847 25.01 24.7 76.4 30 6.3 43.3
01:55 1018 30.06 847 25.01 24.4 76 31 6.6 44
02:00 1018 30.06 847 25.01 24.1 75.5 32 6.9 44.3
02:05 1018 30.06 847 25.01 23.8 74.9 33 7 44.6
02:10 1018 30.06 847 25.01 23.8 74.8 33 7 44.5
02:15 1018 30.06 847 25.01 23.6 74.6 34 7.1 44.8
02:20 1018 30.06 847 25.01 23.6 74.4 35 7.3 45.1
02:25 1018 30.06 847 25.01 23.5 74.3 33 6.7 44.1
02:30 1018 30.06 847 25.01 23.6 74.4 34 7.1 44.9
02:35 1018 30.06 847 25.01 23.5 74.2 33 6.7 44
02:40 1018 30.06 847 25.01 23.3 73.9 34 6.6 43.8
02:45 1018 30.06 847 25.01 23.2 73.8 34 6.5 43.8
02:50 1018 30.06 847 25.01 23 73.5 37 7.6 45.6
02:55 1018 30.06 847 25.01 22.2 72 39 7.7 45.9
03:00 1018 30.06 847 25.01 21.9 71.4 40 7.7 45.9
03:05 1018 30.06 847 25.01 21.7 71 41 8.1 46.6
03:10 1018 30.06 847 25.01 21.3 70.4 41 7.9 46.2
03:15 1018 30.06 847 25.01 21.3 70.3 41 7.6 45.7
03:20 1018 30.06 847 25.01 21.5 70.6 40 7.4 45.3
03:25 1018 30.06 847 25.01 21.8 71.2 39 7.4 45.3
03:30 1018 30.06 847 25.01 21.8 71.2 40 7.6 45.8
03:35 1018 30.06 848 25.04 21.7 71.1 40 7.6 45.7
03:40 1018 30.06 848 25.04 21.5 70.7 43 8.5 47.3
03:45 1019 30.09 848 25.04 20.7 69.2 46 8.8 47.8
03:50 1019 30.09 848 25.04 20.2 68.4 46 8.5 47.3
03:55 1019 30.09 848 25.04 20.1 68.3 47 8.6 47.4
04:00 1019 30.09 848 25.04 20.2 68.3 46 8.2 46.8
04:05 1019 30.09 848 25.04 20.4 68.6 45 8.2 46.8
04:10 1019 30.09 848 25.04 20.4 68.8 45 8.2 46.7
04:15 1019 30.09 848 25.04 20.2 68.3 46 8.3 47
04:20 1019 30.09 848 25.04 19.9 67.9 47 8.5 47.4
04:25 1019 30.09 848 25.04 19.7 67.5 48 8.6 47.6
04:30 1019 30.09 848 25.04 19.6 67.3 49 8.7 47.7
04:35 1019 30.09 848 25.04 19.4 67 50 8.8 47.8
04:40 1019 30.09 849 25.07 19.3 66.7 51 8.9 48
04:45 1019 30.09 849 25.07 19.2 66.5 51 9 48.2
04:50 1020 30.12 849 25.07 19.3 66.7 51 9.1 48.4
04:55 1020 30.12 849 25.07 19.4 66.9 51 9.2 48.6
05:00 1020 30.12 849 25.07 19.3 66.8 52 9.3 48.8
05:05 1020 30.12 849 25.07 19.2 66.6 54 9.7 49.4
05:10 1020 30.12 849 25.07 18.9 66 56 10 50.1
05:15 1020 30.12 849 25.07 18.6 65.5 58 10.3 50.5
05:20 1020 30.12 850 25.1 18.2 64.8 62 11 51.8
05:25 1020 30.12 850 25.1 17.6 63.7 65 11.1 52
05:30 1021 30.15 850 25.1 17.1 62.9 68 11.2 52.2
05:35 1021 30.15 850 25.1 16.8 62.3 69 11.2 52.2
05:40 1021 30.15 850 25.1 16.6 61.8 71 11.3 52.3
05:45 1021 30.15 850 25.1 16.3 61.3 71 11.1 52.1
05:50 1021 30.15 850 25.1 16.4 61.5 70 11 51.7
05:55 1021 30.15 850 25.1 16.6 61.9 69 11 51.7
06:00 1021 30.15 850 25.1 16.9 62.4 68 11 51.8
06:05 1021 30.15 850 25.1 17.1 62.8 66 10.7 51.2
06:10 1021 30.15 850 25.1 17.6 63.6 63 10.6 51.1
06:15 1021 30.15 850 25.1 17.6 63.8 64 10.9 51.6
06:20 1021 30.15 850 25.1 17.4 63.3 65 10.8 51.5
06:25 1021 30.15 851 25.13 17.3 63.1 65 10.7 51.3
06:30 1021 30.15 851 25.13 17.3 63.1 65 10.7 51.2
06:35 1021 30.15 851 25.13 17.3 63.1 64 10.5 50.9
06:40 1021 30.15 851 25.13 17.4 63.2 63 10.3 50.6
06:45 1022 30.18 851 25.13 17.5 63.5 62 10.2 50.4
06:50 1022 30.18 851 25.13 17.7 63.8 61 10.2 50.3
06:55 1022 30.18 851 25.13 17.9 64.2 58 9.7 49.4
07:00 1022 30.18 851 25.13 18.1 64.6 59 10.1 50.1
07:05 1022 30.18 851 25.13 18.4 65.1 58 10 49.9
07:10 1022 30.18 851 25.13 18.5 65.2 60 10.6 51.1
07:15 1022 30.18 851 25.13 18.2 64.8 61 10.7 51.2
07:20 1022 30.18 851 25.13 18.2 64.8 58 9.9 49.7
07:25 1022 30.18 851 25.13 18.5 65.3 54 9.1 48.3
07:30 1022 30.18 851 25.13 18.8 65.9 54 9.4 48.9
07:35 1022 30.18 851 25.13 19 66.2 54 9.7 49.4
07:40 1022 30.18 851 25.13 18.8 65.8 55 9.7 49.4
07:45 1022 30.18 851 25.13 18.9 66 55 9.8 49.6
07:50 1022 30.18 851 25.13 18.8 65.8 54 9.4 49
07:55 1022 30.18 851 25.13 19 66.3 52 9.2 48.5
08:00 1022 30.18 851 25.13 19.2 66.6 53 9.6 49.3
08:05 1022 30.18 851 25.13 19.1 66.3 51 9 48.1
08:10 1022 30.18 851 25.13 19.4 67 48 8.3 47
08:15 1022 30.18 851 25.13 19.9 67.8 48 8.8 47.8
08:20 1022 30.18 851 25.13 19.6 67.3 49 8.7 47.7
08:25 1022 30.18 851 25.13 19.9 67.9 47 8.5 47.2
08:30 1022 30.18 851 25.13 20.5 68.9 46 8.6 47.5
08:35 1022 30.18 851 25.13 21 69.9 42 7.9 46.3
08:40 1022 30.18 851 25.13 21.4 70.4 42 8.2 46.7
08:45 1022 30.18 851 25.13 21 69.7 43 8 46.4
08:50 1022 30.18 851 25.13 21.6 70.9 41 7.9 46.3
08:55 1022 30.18 851 25.13 21.6 70.9 39 7.2 45
09:00 1022 30.18 851 25.13 21.4 70.6 39 7.2 44.9
09:05 1022 30.18 851 25.13 22 71.6 36 6.5 43.7
09:10 1022 30.18 851 25.13 22.2 72 37 7 44.6
09:15 1022 30.18 851 25.13 22 71.6 38 7.2 45
09:20 1022 30.18 851 25.13 22 71.6 37 6.8 44.2
09:25 1022 30.18 851 25.13 21.8 71.3 37 6.5 43.8
09:30 1022 30.18 851 25.13 21.7 71.1 38 6.8 44.3
09:35 1022 30.18 851 25.13 21.8 71.3 37 6.8 44.2
09:40 1022 30.18 851 25.13 22.3 72.2 36 6.9 44.4
09:45 1022 30.18 851 25.13 22.6 72.6 35 6.7 44
09:50 1022 30.18 851 25.13 22.6 72.7 35 6.4 43.6
09:55 1022 30.18 851 25.13 22.4 72.4 36 6.9 44.4
10:00 1022 30.18 851 25.13 22.6 72.7 35 6.4 43.5
10:05 1022 30.18 851 25.13 22.8 73 34 6.4 43.6
10:10 1022 30.18 851 25.13 22.8 73.1 34 6.2 43.1
10:15 1022 30.18 851 25.13 23 73.5 33 6.2 43.1
10:20 1022 30.18 851 25.13 23.1 73.7 32 5.9 42.5
10:25 1022 30.18 851 25.13 23 73.3 33 6.1 43
10:30 1022 30.18 851 25.13 22.8 73.1 32 5.5 41.9
10:35 1022 30.18 851 25.13 23.3 73.9 31 5.3 41.6
10:40 1022 30.18 851 25.13 23 73.3 29 4.3 39.8
10:45 1022 30.18 851 25.13 23.3 74 29 4.6 40.3
10:50 1022 30.18 851 25.13 23.2 73.8 30 4.8 40.6
10:55 1022 30.18 851 25.13 23.5 74.3 29 4.9 40.8
11:00 1022 30.18 851 25.13 24 75.2 28 4.5 40.1
11:05 1022 30.18 851 25.13 23.6 74.5 28 4.5 40
11:10 1022 30.18 851 25.13 23.6 74.4 29 4.7 40.4
11:15 1022 30.18 851 25.13 23.6 74.5 28 4.5 40.1
11:20 1022 30.18 851 25.13 23.2 73.7 29 4.4 39.9
11:25 1022 30.18 851 25.13 23.6 74.5 29 4.6 40.3
11:30 1022 30.18 851 25.13 24 75.3 27 4.3 39.8
11:35 1022 30.18 851 25.13 24.2 75.6 27 4.3 39.8
11:40 1022 30.18 851 25.13 24.2 75.5 27 4 39.2
11:45 1022 30.18 851 25.13 24.4 75.9 26 3.7 38.6
11:50 1022 30.18 851 25.13 24.1 75.5 27 4 39.2
11:55 1021 30.15 851 25.13 24.4 75.8 27 4.4 39.9
12:00 1021 30.15 851 25.13 24.7 76.4 26 4.4 39.9
12:05 1021 30.15 851 25.13 24.3 75.7 27 4.1 39.4
12:10 1021 30.15 851 25.13 24.4 75.8 27 4.5 40.1
12:15 1021 30.15 851 25.13 24.8 76.6 25 4 39.1
12:20 1021 30.15 851 25.13 24.6 76.4 26 4 39.3
12:25 1021 30.15 851 25.13 24.9 76.8 25 3.6 38.5
12:30 1021 30.15 851 25.13 25 77.1 24 3.5 38.3
12:35 1021 30.15 851 25.13 25.2 77.4 25 3.8 38.9
12:40 1021 30.15 851 25.13 25.4 77.6 24 3.7 38.6
12:45 1021 30.15 851 25.13 25.5 77.9 23 2.8 37.1
12:50 1021 30.15 851 25.13 25.4 77.8 24 3.6 38.5
12:55 1021 30.15 851 25.13 25.6 78.1 23 3.1 37.6
13:00 1021 30.15 851 25.13 25.8 78.4 22 2.7 36.9
13:05 1021 30.15 850 25.1 25.8 78.5 23 3.5 38.4
13:10 1021 30.15 850 25.1 25.7 78.2 22 2.4 36.4
13:15 1021 30.15 850 25.1 25.8 78.5 22 2.5 36.5
13:20 1021 30.15 850 25.1 26 78.8 21 2.1 35.8
13:25 1021 30.15 850 25.1 26 78.8 21 2 35.6
13:30 1021 30.15 850 25.1 26.4 79.5 22 2.9 37.3
13:35 1021 30.15 850 25.1 26.3 79.3 20 1.9 35.5
13:40 1021 30.15 850 25.1 26.2 79.1 20 1.9 35.5
13:45 1021 30.15 850 25.1 26.1 78.9 19 0.8 33.4
13:50 1021 30.15 850 25.1 26.3 79.3 19 1 33.7
13:55 1021 30.15 850 25.1 26.5 79.8 19 1.6 34.8
14:00 1021 30.15 850 25.1 26.7 80.1 19 1.3 34.3
14:05 1021 30.15 850 25.1 26.7 80 18 0.4 32.8
14:10 1021 30.15 850 25.1 26.5 79.8 18 0.4 32.8
14:15 1021 30.15 850 25.1 26.5 79.6 17 -0.1 31.8
14:20 1021 30.15 850 25.1 26.3 79.4 18 0.5 32.9
14:25 1021 30.15 850 25.1 26.4 79.4 19 1.2 34.2
14:30 1021 30.15 850 25.1 26.1 78.9 18 0 32
14:35 1021 30.15 850 25.1 26.2 79.2 18 0 32.1
14:40 1021 30.15 850 25.1 26.5 79.8 18 0.6 33.1
14:45 1021 30.15 850 25.1 26.2 79.2 18 0.4 32.7
14:50 1021 30.15 850 25.1 26.1 79.1 18 0.1 32.2
14:55 1021 30.15 850 25.1 26 78.9 18 -0.1 31.9
15:00 1021 30.15 850 25.1 26.2 79.2 17 -0.3 31.5
15:05 1021 30.15 850 25.1 26.4 79.6 17 -0.5 31
15:10 1021 30.15 850 25.1 26.3 79.3 18 0.4 32.7
15:15 1021 30.15 850 25.1 26.3 79.4 17 -0.4 31.2
15:20 1021 30.15 850 25.1 26.3 79.4 17 -0.5 31
15:25 1021 30.15 850 25.1 26.2 79.1 18 0.2 32.3
15:30 1021 30.15 850 25.1 26.5 79.7 19 1.1 34
15:35 1021 30.15 850 25.1 26.3 79.3 17 -0.4 31.4
15:40 1021 30.15 850 25.1 26.2 79.2 17 -0.2 31.6
15:45 1021 30.15 850 25.1 26.1 79 18 0.1 32.2
15:50 1021 30.15 850 25.1 26.1 78.9 18 0.2 32.4
15:55 1021 30.15 850 25.1 26.4 79.5 18 0.3 32.6
16:00 1021 30.15 850 25.1 26.2 79.1 18 0.2 32.3
16:05 1021 30.15 850 25.1 26 78.8 17 -0.5 31.1
16:10 1021 30.15 850 25.1 26.2 79.1 18 -0.1 31.9
16:15 1021 30.15 850 25.1 26.4 79.5 18 0.2 32.4
16:20 1021 30.15 850 25.1 25.9 78.6 18 0.3 32.5
16:25 1021 30.15 850 25.1 25.9 78.5 19 0.6 33.1
16:30 1021 30.15 850 25.1 25.8 78.5 18 -0.3 31.5
16:35 1021 30.15 850 25.1 25.9 78.6 18 0.4 32.7
16:40 1021 30.15 850 25.1 26 78.8 18 0.1 32.2
16:45 1021 30.15 850 25.1 26.2 79.1 19 1 33.8
16:50 1021 30.15 850 25.1 26.1 79 18 0.4 32.7
16:55 1021 30.15 850 25.1 26.1 78.9 20 1.6 35
17:00 1021 30.15 850 25.1 25.8 78.5 18 0.1 32.2
17:05 1021 30.15 850 25.1 26 78.8 19 0.6 33
17:10 1021 30.15 850 25.1 26 78.7 19 1 33.8
17:15 1021 30.15 850 25.1 25.9 78.6 18 0.2 32.3
17:20 1021 30.15 850 25.1 25.6 78 20 1.4 34.6
17:25 1021 30.15 850 25.1 25.3 77.6 21 1.6 34.9
17:30 1021 30.15 850 25.1 25.3 77.5 21 1.3 34.4
17:35 1021 30.15 850 25.1 25 77 22 1.8 35.3
17:40 1021 30.15 850 25.1 24.7 76.5 22 1.9 35.4
17:45 1021 30.15 850 25.1 24.6 76.4 22 1.8 35.2
17:50 1021 30.15 850 25.1 24.4 76 22 1.7 35
17:55 1021 30.15 850 25.1 24.4 76 23 2 35.7
18:00 1021 30.15 850 25.1 24.2 75.5 22 1.5 34.7
18:05 1021 30.15 850 25.1 24 75.2 22 1.5 34.7
18:10 1021 30.15 850 25.1 23.9 75.1 23 1.8 35.3
18:15 1021 30.15 850 25.1 23.8 74.9 23 1.7 35.1
18:20 1021 30.15 850 25.1 23.6 74.5 24 2.1 35.8
18:25 1021 30.15 850 25.1 23.7 74.6 25 2.5 36.5
18:30 1021 30.15 850 25.1 23.6 74.4 25 2.5 36.4
18:35 1021 30.15 850 25.1 23.4 74.2 26 3 37.4
18:40 1021 30.15 850 25.1 23.2 73.8 25 2.3 36.2
18:45 1021 30.15 850 25.1 23 73.4 25 2.4 36.3
18:50 1021 30.15 850 25.1 22.7 72.9 25 2.1 35.7
18:55 1021 30.15 850 25.1 22.4 72.4 26 2.1 35.8
19:00 1021 30.15 850 25.1 22.3 72.1 26 2.1 35.7
19:05 1021 30.15 850 25.1 22 71.7 27 2.4 36.3
19:10 1021 30.15 850 25.1 21.8 71.3 28 2.6 36.6
19:15 1021 30.15 850 25.1 21.6 70.9 28 2.3 36.2
19:20 1021 30.15 851 25.13 21.4 70.5 27 1.9 35.5
19:25 1021 30.15 851 25.13 21.1 70 28 1.8 35.3
19:30 1021 30.15 851 25.13 20.9 69.6 28 1.7 35.1
19:35 1021 30.15 851 25.13 20.7 69.3 28 1.7 35
19:40 1021 30.15 851 25.13 20.5 68.8 28 1.6 34.9
19:45 1022 30.18 851 25.13 20.1 68.1 33 3.5 38.2
19:50 1022 30.18 851 25.13 19.1 66.4 38 4.6 40.3
19:55 1022 30.18 851 25.13 18.6 65.5 37 3.9 39.1
20:00 1022 30.18 851 25.13 18.7 65.6 34 2.7 36.9
20:05 1022 30.18 851 25.13 18.8 65.8 33 2.3 36.1
20:10 1022 30.18 851 25.13 18.9 66 31 1.7 35.1
20:15 1022 30.18 851 25.13 19.1 66.4 31 1.7 35.1
20:20 1022 30.18 851 25.13 19 66.1 38 4.4 39.9
20:25 1022 30.18 851 25.13 17.9 64.1 40 4.2 39.6
20:30 1022 30.18 851 25.13 17.5 63.5 40 4 39.2
20:35 1022 30.18 851 25.13 17.2 62.9 45 5.2 41.4
20:40 1022 30.18 851 25.13 16.6 61.9 46 4.9 40.8
20:45 1022 30.18 851 25.13 16.5 61.6 42 3.7 38.6
20:50 1022 30.18 851 25.13 17 62.6 46 5.3 41.5
20:55 1022 30.18 851 25.13 17 62.6 38 2.8 37
21:00 1022 30.18 851 25.13 18.1 64.5 37 3.5 38.3
21:05 1022 30.18 851 25.13 17.8 64.1 37 3 37.5
21:10 1022 30.18 851 25.13 18 64.3 38 3.4 38.2
21:15 1022 30.18 851 25.13 17.4 63.2 40 3.8 38.8
21:20 1022 30.18 851 25.13 17 62.6 43 4.3 39.8
21:25 1022 30.18 851 25.13 16.8 62.3 40 3.4 38
21:30 1022 30.18 851 25.13 17.1 62.7 41 3.7 38.6
21:35 1022 30.18 851 25.13 16.7 62 43 4.1 39.3
21:40 1022 30.18 851 25.13 16.4 61.4 44 4 39.3
21:45 1022 30.18 851 25.13 16.2 61.2 41 3.2 37.7
21:50 1022 30.18 851 25.13 16.4 61.6 40 2.9 37.2
21:55 1022 30.18 851 25.13 16.4 61.6 43 4 39.3
22:00 1022 30.18 851 25.13 16.2 61.1 44 3.9 39
22:05 1022 30.18 851 25.13 15.8 60.5 46 4.3 39.7
22:10 1022 30.18 851 25.13 15.6 60.1 43 3.2 37.8
22:15 1022 30.18 851 25.13 15.8 60.4 46 4.3 39.8
22:20 1022 30.18 852 25.16 15.5 59.9 50 5.1 41.2
22:25 1022 30.18 852 25.16 15.4 59.7 46 3.9 39.1
22:30 1023 30.21 852 25.16 15.2 59.3 48 4.4 39.9
22:35 1023 30.21 852 25.16 15.1 59.1 43 2.6 36.7
22:40 1023 30.21 852 25.16 15.8 60.5 38 1.7 35
22:45 1023 30.21 852 25.16 16.4 61.6 37 1.7 35
22:50 1023 30.21 852 25.16 16.5 61.6 37 1.9 35.3
22:55 1023 30.21 852 25.16 16.6 61.8 38 2.5 36.5
23:00 1023 30.21 852 25.16 16.5 61.8 40 3 37.3
23:05 1023 30.21 852 25.16 16.5 61.7 41 3.2 37.8
23:10 1022 30.18 852 25.16 16.4 61.6 41 3.2 37.8
23:15 1022 30.18 852 25.16 16.4 61.5 41 3.3 38
23:20 1022 30.18 852 25.16 16.3 61.3 42 3.3 38
23:25 1022 30.18 852 25.16 16.2 61.1 42 3.5 38.2
23:30 1023 30.21 852 25.16 16 60.8 43 3.5 38.3
23:35 1023 30.21 852 25.16 15.8 60.5 44 3.6 38.4
23:40 1023 30.21 852 25.16 15.7 60.2 45 3.8 38.8
23:45 1023 30.21 852 25.16 15.5 60 45 3.8 38.9
23:50 1023 30.21 852 25.16 15.5 59.8 46 4 39.2
23:55 1023 30.21 852 25.16 15.4 59.7 47 4.1 39.4
24:00 1023 30.21 852 25.16 15.3 59.5 47 4.3 39.7